createdAt,value
2022-09-24T00:02:01.827Z,3.77
2022-09-24T00:04:32.586Z,3.70
2022-09-24T00:07:04.434Z,4.17
2022-09-24T00:09:36.353Z,4.93
2022-09-24T00:12:13.177Z,4.63
2022-09-24T00:14:44.238Z,4.97
2022-09-24T00:17:14.978Z,4.80
2022-09-24T00:19:48.045Z,4.40
2022-09-24T00:22:20.618Z,4.10
2022-09-24T00:25:07.688Z,4.40
2022-09-24T00:27:41.002Z,4.90
2022-09-24T00:30:13.381Z,4.93
2022-09-24T00:32:44.088Z,5.13
2022-09-24T00:35:14.743Z,5.23
2022-09-24T00:37:45.395Z,5.27
2022-09-24T00:40:16.743Z,5.50
2022-09-24T00:42:50.205Z,5.30
2022-09-24T00:45:21.192Z,5.73
2022-09-24T00:47:55.671Z,6.07
2022-09-24T00:50:31.329Z,6.63
2022-09-24T00:53:06.356Z,5.00
2022-09-24T00:55:39.447Z,6.07
2022-09-24T00:58:14.493Z,5.40
2022-09-24T01:00:46.222Z,5.27
2022-09-24T01:03:21.300Z,5.60
2022-09-24T01:05:53.280Z,6.43
2022-09-24T01:08:25.854Z,5.57
2022-09-24T01:11:13.822Z,6.07
2022-09-24T01:13:57.976Z,7.07
2022-09-24T01:16:34.809Z,5.90
2022-09-24T01:19:21.931Z,5.67
2022-09-24T01:21:56.277Z,5.93
2022-09-24T01:24:50.223Z,4.83
2022-09-24T01:27:24.980Z,6.20
2022-09-24T01:30:06.581Z,5.07
2022-09-24T01:32:40.492Z,5.80
2022-09-24T01:35:18.205Z,6.73
2022-09-24T01:37:57.353Z,6.53
2022-09-24T01:40:30.851Z,6.93
2022-09-24T01:43:05.012Z,7.27
2022-09-24T01:45:40.789Z,7.13
2022-09-24T01:48:11.960Z,6.27
2022-09-24T01:50:47.453Z,7.67
2022-09-24T01:53:23.017Z,6.60
2022-09-24T01:55:57.850Z,7.60
2022-09-24T01:58:32.792Z,9.17
2022-09-24T02:01:13.371Z,9.27
2022-09-24T02:03:50.613Z,9.70
2022-09-24T02:06:28.762Z,10.47
2022-09-24T02:09:00.987Z,9.60
2022-09-24T02:11:38.085Z,8.60
2022-09-24T02:14:14.843Z,7.63
2022-09-24T02:16:51.847Z,7.90
2022-09-24T02:19:26.544Z,8.63
2022-09-24T02:21:57.935Z,8.13
2022-09-24T02:24:36.945Z,9.33
2022-09-24T02:27:07.799Z,8.80
2022-09-24T02:29:41.240Z,8.90
2022-09-24T02:32:20.527Z,7.90
2022-09-24T02:34:57.241Z,7.73
2022-09-24T02:37:28.447Z,7.60
2022-09-24T02:39:59.243Z,6.93
2022-09-24T02:42:31.418Z,10.23
2022-09-24T02:45:04.554Z,8.67
2022-09-24T02:47:38.319Z,8.23
2022-09-24T02:50:11.446Z,9.07
2022-09-24T02:52:42.599Z,8.40
2022-09-24T02:55:14.326Z,8.10
2022-09-24T02:57:47.616Z,8.77
2022-09-24T03:00:21.144Z,7.73
2022-09-24T03:03:02.982Z,8.00
2022-09-24T03:05:34.186Z,6.40
2022-09-24T03:08:07.507Z,7.93
2022-09-24T03:10:38.216Z,8.53
2022-09-24T03:13:11.443Z,10.77
2022-09-24T03:15:42.388Z,9.87
2022-09-24T03:18:15.968Z,9.57
2022-09-24T03:20:46.863Z,10.10
2022-09-24T03:23:18.596Z,10.17
2022-09-24T03:25:49.264Z,8.07
2022-09-24T03:28:20.493Z,10.17
2022-09-24T03:31:03.516Z,8.63
2022-09-24T03:33:41.792Z,9.27
2022-09-24T03:36:14.992Z,8.50
2022-09-24T03:38:56.647Z,10.00
2022-09-24T03:41:29.031Z,11.70
2022-09-24T03:43:59.844Z,11.07
2022-09-24T03:46:30.818Z,11.20
2022-09-24T03:49:04.253Z,9.37
2022-09-24T03:51:35.160Z,11.20
2022-09-24T03:54:06.280Z,8.27
2022-09-24T03:56:38.521Z,9.53
2022-09-24T03:59:10.048Z,10.00
2022-09-24T04:01:43.445Z,9.40
2022-09-24T04:04:16.900Z,9.03
2022-09-24T04:06:49.922Z,9.27
2022-09-24T04:09:24.160Z,10.10
2022-09-24T04:11:55.087Z,10.10
2022-09-24T04:14:25.954Z,12.30
2022-09-24T04:16:57.484Z,12.00
2022-09-24T04:19:32.025Z,12.00
2022-09-24T04:22:03.223Z,14.80
2022-09-24T04:24:34.245Z,12.10
2022-09-24T04:27:04.933Z,13.33
2022-09-24T04:29:35.676Z,11.60
2022-09-24T04:32:08.932Z,9.30
2022-09-24T04:34:42.222Z,10.90
2022-09-24T04:37:12.887Z,11.23
2022-09-24T04:39:43.525Z,12.63
2022-09-24T04:42:19.642Z,12.90
2022-09-24T04:44:55.329Z,11.90
2022-09-24T04:47:27.012Z,9.80
2022-09-24T04:50:02.711Z,13.07
2022-09-24T04:52:34.252Z,9.77
2022-09-24T04:55:05.200Z,12.87
2022-09-24T04:57:37.769Z,9.10
2022-09-24T05:00:15.360Z,10.33
2022-09-24T05:02:46.839Z,9.80
2022-09-24T05:05:20.409Z,12.80
2022-09-24T05:07:56.783Z,11.53
2022-09-24T05:10:28.491Z,11.03
2022-09-24T05:12:59.226Z,10.67
2022-09-24T05:15:32.977Z,13.97
2022-09-24T05:18:06.254Z,12.00
2022-09-24T05:20:39.637Z,14.77
2022-09-24T05:23:10.520Z,13.03
2022-09-24T05:26:01.506Z,13.47
2022-09-24T05:28:30.977Z,14.17
2022-09-24T05:31:02.865Z,15.33
2022-09-24T05:33:33.720Z,14.33
2022-09-24T05:36:07.415Z,15.43
2022-09-24T05:38:41.975Z,13.97
2022-09-24T05:41:15.070Z,15.00
2022-09-24T05:43:46.203Z,14.97
2022-09-24T05:46:17.031Z,13.10
2022-09-24T05:48:47.920Z,14.17
2022-09-24T05:51:21.345Z,12.07
2022-09-24T05:53:55.100Z,11.20
2022-09-24T05:56:28.067Z,13.60
2022-09-24T05:59:01.203Z,13.20
2022-09-24T06:01:32.720Z,9.53
2022-09-24T06:04:08.619Z,11.60
2022-09-24T06:06:44.544Z,12.23
2022-09-24T06:09:15.540Z,11.80
2022-09-24T06:11:50.337Z,12.40
2022-09-24T06:14:21.265Z,12.43
2022-09-24T06:16:52.057Z,12.70
2022-09-24T06:19:23.971Z,12.20
2022-09-24T06:21:57.921Z,10.73
2022-09-24T06:24:28.797Z,11.07
2022-09-24T06:27:02.043Z,10.53
2022-09-24T06:29:34.983Z,11.83
2022-09-24T06:32:06.416Z,11.10
2022-09-24T06:34:37.122Z,11.60
2022-09-24T06:37:14.239Z,9.87
2022-09-24T06:39:45.009Z,9.43
2022-09-24T06:42:15.758Z,9.50
2022-09-24T06:44:46.868Z,11.00
2022-09-24T06:47:17.585Z,10.93
2022-09-24T06:49:50.964Z,10.23
2022-09-24T06:52:24.338Z,8.80
2022-09-24T06:54:56.043Z,10.43
2022-09-24T06:57:29.135Z,11.30
2022-09-24T07:00:00.040Z,11.40
2022-09-24T07:02:33.661Z,10.23
2022-09-24T07:05:06.486Z,10.10
2022-09-24T07:07:41.233Z,10.63
2022-09-24T07:10:13.401Z,10.10
2022-09-24T07:12:45.418Z,10.83
2022-09-24T07:15:16.345Z,9.83
2022-09-24T07:17:47.083Z,11.20
2022-09-24T07:20:17.979Z,12.07
2022-09-24T07:22:52.524Z,10.03
2022-09-24T07:25:25.826Z,11.13
2022-09-24T07:27:57.132Z,11.47
2022-09-24T07:30:27.899Z,11.30
2022-09-24T07:32:59.397Z,10.63
2022-09-24T07:35:31.191Z,10.47
2022-09-24T07:38:09.769Z,11.57
2022-09-24T07:40:43.291Z,14.07
2022-09-24T07:43:15.060Z,12.60
2022-09-24T07:45:46.717Z,12.50
2022-09-24T07:48:19.913Z,11.50
2022-09-24T07:50:51.170Z,11.27
2022-09-24T07:53:24.900Z,11.80
2022-09-24T07:55:56.417Z,11.27
2022-09-24T07:58:27.200Z,9.67
2022-09-24T08:01:00.772Z,9.70
2022-09-24T08:03:31.625Z,9.77
2022-09-24T08:06:05.395Z,9.23
2022-09-24T08:08:39.134Z,11.00
2022-09-24T08:11:12.102Z,10.00
2022-09-24T08:13:43.102Z,12.50
2022-09-24T08:16:16.382Z,10.43
2022-09-24T08:18:47.374Z,9.50
2022-09-24T08:21:18.748Z,9.80
2022-09-24T08:23:52.245Z,9.80
2022-09-24T08:26:23.059Z,7.97
2022-09-24T08:28:53.791Z,7.20
2022-09-24T08:31:24.970Z,7.20
2022-09-24T08:33:58.858Z,8.07
2022-09-24T08:36:32.427Z,7.87
2022-09-24T08:39:07.038Z,7.23
2022-09-24T08:41:53.768Z,5.33
2022-09-24T08:44:43.163Z,7.40
2022-09-24T08:47:26.339Z,7.60
2022-09-24T08:50:10.111Z,6.80
2022-09-24T08:53:01.347Z,7.10
2022-09-24T08:55:40.518Z,7.70
2022-09-24T08:58:32.888Z,6.73
2022-09-24T09:01:15.116Z,6.83
2022-09-24T09:03:49.577Z,7.47
2022-09-24T09:06:46.130Z,7.07
2022-09-24T09:09:20.540Z,6.33
2022-09-24T09:12:02.638Z,6.70
2022-09-24T09:14:43.431Z,7.23
2022-09-24T09:17:26.528Z,7.87
2022-09-24T09:20:02.464Z,6.93
2022-09-24T09:22:38.438Z,7.27
2022-09-24T09:25:20.947Z,7.00
2022-09-24T09:28:05.980Z,6.50
2022-09-24T09:30:45.519Z,7.30
2022-09-24T09:33:39.769Z,7.90
2022-09-24T09:36:32.386Z,7.80
2022-09-24T09:39:15.192Z,7.90
2022-09-24T09:41:55.012Z,7.67
2022-09-24T09:44:31.614Z,8.17
2022-09-24T09:47:17.335Z,8.57
2022-09-24T09:49:53.500Z,7.67
2022-09-24T09:52:27.130Z,7.83
2022-09-24T09:55:00.784Z,7.20
2022-09-24T09:57:31.655Z,8.50
2022-09-24T10:00:08.375Z,7.70
2022-09-24T10:02:44.198Z,8.63
2022-09-24T10:05:27.497Z,7.27
2022-09-24T10:08:02.085Z,7.07
2022-09-24T10:10:32.815Z,8.17
2022-09-24T10:13:15.603Z,7.40
2022-09-24T10:15:55.805Z,7.97
2022-09-24T10:18:33.747Z,8.33
2022-09-24T10:21:07.680Z,8.73
2022-09-24T10:23:41.724Z,9.60
2022-09-24T10:26:13.201Z,8.90
2022-09-24T10:29:01.568Z,10.50
2022-09-24T10:31:38.659Z,7.87
2022-09-24T10:34:24.288Z,8.90
2022-09-24T10:36:56.784Z,7.83
2022-09-24T10:39:27.989Z,8.47
2022-09-24T10:42:03.043Z,8.40
2022-09-24T10:44:39.998Z,7.73
2022-09-24T10:47:26.790Z,7.93
2022-09-24T10:50:30.246Z,7.60
2022-09-24T10:53:04.364Z,7.30
2022-09-24T10:55:55.435Z,7.57
2022-09-24T10:58:59.924Z,6.30
2022-09-24T11:01:39.062Z,5.97
2022-09-24T11:04:46.182Z,6.40
2022-09-24T11:07:47.518Z,6.40
2022-09-24T11:10:29.106Z,5.73
2022-09-24T11:13:13.191Z,6.30
2022-09-24T11:16:11.669Z,6.50
2022-09-24T11:18:52.771Z,5.87
2022-09-24T11:21:36.043Z,7.30
2022-09-24T11:24:31.924Z,7.03
2022-09-24T11:27:16.114Z,5.90
2022-09-24T11:30:10.232Z,6.13
2022-09-24T11:32:57.885Z,6.70
2022-09-24T11:35:59.473Z,6.60
2022-09-24T11:38:42.864Z,7.50
2022-09-24T11:41:33.552Z,7.93
2022-09-24T11:44:25.810Z,8.97
2022-09-24T11:47:09.445Z,8.47
2022-09-24T11:49:58.006Z,8.63
2022-09-24T11:52:34.505Z,8.10
2022-09-24T11:55:12.966Z,8.50
2022-09-24T11:57:53.557Z,9.27
2022-09-24T12:00:24.776Z,8.70
2022-09-24T12:03:04.239Z,8.27
2022-09-24T12:05:39.764Z,7.43
2022-09-24T12:08:15.932Z,8.00
2022-09-24T12:10:52.405Z,7.33
2022-09-24T12:13:38.178Z,8.27
2022-09-24T12:16:14.269Z,8.10
2022-09-24T12:18:51.411Z,7.97
2022-09-24T12:21:28.822Z,7.97
2022-09-24T12:24:08.751Z,8.07
2022-09-24T12:26:42.200Z,7.40
2022-09-24T12:29:46.993Z,8.70
2022-09-24T12:32:37.870Z,9.83
2022-09-24T12:35:20.055Z,9.13
2022-09-24T12:37:54.160Z,9.30
2022-09-24T12:40:46.185Z,8.70
2022-09-24T12:43:26.590Z,8.57
2022-09-24T12:46:04.893Z,8.63
2022-09-24T12:48:40.205Z,8.23
2022-09-24T12:51:12.899Z,10.23
2022-09-24T12:53:46.540Z,10.20
2022-09-24T12:56:27.354Z,10.63
2022-09-24T12:58:58.639Z,10.37
2022-09-24T13:01:35.270Z,11.20
2022-09-24T13:04:28.059Z,9.70
2022-09-24T13:06:59.233Z,10.10
2022-09-24T13:09:37.008Z,9.30
2022-09-24T13:12:24.641Z,10.27
2022-09-24T13:15:02.569Z,10.43
2022-09-24T13:17:40.146Z,10.17
2022-09-24T13:20:22.752Z,9.50
2022-09-24T13:23:00.764Z,9.83
2022-09-24T13:25:34.269Z,10.00
2022-09-24T13:28:07.176Z,10.73
2022-09-24T13:30:43.109Z,11.20
2022-09-24T13:33:24.565Z,10.30
2022-09-24T13:36:08.531Z,10.70
2022-09-24T13:38:44.791Z,10.67
2022-09-24T13:41:27.568Z,10.03
2022-09-24T13:44:02.996Z,10.97
2022-09-24T13:46:36.706Z,10.40
2022-09-24T13:49:18.855Z,9.03
2022-09-24T13:51:57.871Z,10.70
2022-09-24T13:54:35.908Z,9.70
2022-09-24T13:57:15.346Z,10.20
2022-09-24T13:59:48.727Z,11.53
2022-09-24T14:02:27.958Z,9.70
2022-09-24T14:05:18.729Z,11.80
2022-09-24T14:08:02.219Z,11.07
2022-09-24T14:10:36.112Z,9.27
2022-09-24T14:13:21.832Z,11.70
2022-09-24T14:15:54.736Z,12.27
2022-09-24T14:18:26.971Z,10.40
2022-09-24T14:21:06.242Z,10.50
2022-09-24T14:23:44.870Z,8.63
2022-09-24T14:26:30.038Z,10.53
2022-09-24T14:29:02.766Z,10.97
2022-09-24T14:31:33.820Z,10.93
2022-09-24T14:34:12.921Z,10.50
2022-09-24T14:36:47.055Z,9.70
2022-09-24T14:39:20.415Z,10.60
2022-09-24T14:41:51.571Z,9.23
2022-09-24T14:44:26.167Z,8.50
2022-09-24T14:47:01.125Z,10.70
2022-09-24T14:49:35.238Z,11.10
2022-09-24T14:52:11.267Z,10.00
2022-09-24T14:54:45.292Z,9.70
2022-09-24T14:57:27.860Z,9.87
2022-09-24T14:59:59.122Z,9.13
2022-09-24T15:02:37.383Z,10.50
2022-09-24T15:05:12.360Z,11.27
2022-09-24T15:07:46.746Z,11.03
2022-09-24T15:10:24.796Z,10.90
2022-09-24T15:12:55.619Z,10.50
2022-09-24T15:15:32.096Z,12.70
2022-09-24T15:18:17.417Z,11.60
2022-09-24T15:20:48.932Z,9.90
2022-09-24T15:23:22.472Z,12.00
2022-09-24T15:25:53.344Z,11.67
2022-09-24T15:28:27.210Z,9.87
2022-09-24T15:30:58.319Z,9.70
2022-09-24T15:33:29.696Z,10.70
2022-09-24T15:36:01.920Z,11.10
2022-09-24T15:38:35.349Z,10.93
2022-09-24T15:41:06.131Z,11.70
2022-09-24T15:43:37.046Z,11.20
2022-09-24T15:46:08.305Z,11.50
2022-09-24T15:48:40.139Z,10.83
2022-09-24T15:51:15.680Z,11.53
2022-09-24T15:53:50.483Z,11.90
2022-09-24T15:56:22.075Z,9.60
2022-09-24T15:58:53.954Z,14.83
2022-09-24T16:01:25.638Z,11.50
2022-09-24T16:03:56.731Z,13.67
2022-09-24T16:06:27.728Z,14.87
2022-09-24T16:09:01.256Z,11.70
2022-09-24T16:11:33.902Z,14.17
2022-09-24T16:14:07.856Z,14.00
2022-09-24T16:16:42.023Z,15.40
2022-09-24T16:19:15.965Z,16.60
2022-09-24T16:21:47.892Z,16.93
2022-09-24T16:24:21.515Z,16.17
2022-09-24T16:26:52.453Z,17.67
2022-09-24T16:29:24.283Z,15.50
2022-09-24T16:31:55.055Z,17.30
2022-09-24T16:34:26.384Z,17.20
2022-09-24T16:36:57.156Z,17.50
2022-09-24T16:39:30.957Z,15.50
2022-09-24T16:42:01.875Z,13.60
2022-09-24T16:44:32.937Z,14.63
2022-09-24T16:47:03.654Z,13.40
2022-09-24T16:49:34.815Z,11.57
2022-09-24T16:52:06.252Z,11.30
2022-09-24T16:54:39.604Z,9.70
2022-09-24T16:57:10.407Z,11.27
2022-09-24T16:59:43.985Z,10.60
2022-09-24T17:02:15.818Z,10.33
2022-09-24T17:04:46.649Z,11.30
2022-09-24T17:07:18.698Z,11.33
2022-09-24T17:10:04.566Z,11.70
2022-09-24T17:12:35.693Z,9.67
2022-09-24T17:15:07.429Z,10.27
2022-09-24T17:17:48.621Z,12.00
2022-09-24T17:20:21.625Z,11.37
2022-09-24T17:22:52.487Z,11.80
2022-09-24T17:25:28.276Z,9.30
2022-09-24T17:28:00.062Z,9.00
2022-09-24T17:30:30.893Z,10.70
2022-09-24T17:33:14.900Z,13.77
2022-09-24T17:35:56.979Z,11.40
2022-09-24T17:38:30.485Z,13.10
2022-09-24T17:41:10.888Z,12.90
2022-09-24T17:43:43.714Z,14.57
2022-09-24T17:46:16.289Z,13.47
2022-09-24T17:48:52.161Z,14.30
2022-09-24T17:51:26.991Z,12.80
2022-09-24T17:53:58.328Z,11.23
2022-09-24T17:56:33.235Z,11.73
2022-09-24T17:59:04.029Z,10.03
2022-09-24T18:01:37.151Z,9.63
2022-09-24T18:04:10.032Z,8.30
2022-09-24T18:06:42.286Z,8.60
2022-09-24T18:09:14.192Z,9.83
2022-09-24T18:11:56.932Z,8.97
2022-09-24T18:14:28.172Z,9.20
2022-09-24T18:16:59.884Z,8.30
2022-09-24T18:19:30.684Z,9.40
2022-09-24T18:22:06.535Z,9.80
2022-09-24T18:24:37.290Z,11.40
2022-09-24T18:27:15.352Z,9.40
2022-09-24T18:29:47.636Z,10.07
2022-09-24T18:32:20.908Z,10.90
2022-09-24T18:34:51.744Z,10.43
2022-09-24T18:37:22.580Z,9.70
2022-09-24T18:39:54.634Z,8.97
2022-09-24T18:42:28.931Z,11.50
2022-09-24T18:44:59.736Z,8.40
2022-09-24T18:47:33.841Z,10.30
2022-09-24T18:50:04.707Z,9.67
2022-09-24T18:52:38.506Z,9.40
2022-09-24T18:55:12.728Z,11.80
2022-09-24T18:57:46.031Z,10.80
2022-09-24T19:00:29.631Z,12.83
2022-09-24T19:03:00.677Z,11.00
2022-09-24T19:05:31.547Z,10.90
2022-09-24T19:08:03.600Z,11.87
2022-09-24T19:10:35.355Z,12.30
2022-09-24T19:13:09.037Z,9.83
2022-09-24T19:15:42.276Z,9.80
2022-09-24T19:18:15.125Z,10.23
2022-09-24T19:20:49.797Z,10.60
2022-09-24T19:23:20.606Z,9.23
2022-09-24T19:25:52.251Z,9.40
2022-09-24T19:28:25.690Z,10.10
2022-09-24T19:30:57.281Z,10.30
2022-09-24T19:33:28.544Z,9.57
2022-09-24T19:36:02.175Z,9.47
2022-09-24T19:38:37.093Z,9.47
2022-09-24T19:41:10.671Z,9.57
2022-09-24T19:43:45.424Z,12.40
2022-09-24T19:46:17.540Z,10.37
2022-09-24T19:48:50.908Z,9.20
2022-09-24T19:51:23.886Z,9.43
2022-09-24T19:53:59.253Z,9.90
2022-09-24T19:56:31.989Z,9.43
2022-09-24T19:59:08.761Z,10.33
2022-09-24T20:01:40.575Z,10.60
2022-09-24T20:04:11.946Z,9.20
2022-09-24T20:06:45.342Z,10.77
2022-09-24T20:09:16.488Z,8.97
2022-09-24T20:11:52.308Z,8.37
2022-09-24T20:14:28.263Z,9.50
2022-09-24T20:17:02.169Z,9.63
2022-09-24T20:19:34.068Z,10.30
2022-09-24T20:22:06.645Z,9.80
2022-09-24T20:24:39.528Z,10.37
2022-09-24T20:27:24.079Z,11.60
2022-09-24T20:29:57.363Z,9.63
2022-09-24T20:32:28.153Z,11.97
2022-09-24T20:35:01.759Z,10.43
2022-09-24T20:37:32.501Z,9.10
2022-09-24T20:40:03.422Z,11.80
2022-09-24T20:42:35.349Z,9.80
2022-09-24T20:45:10.391Z,12.40
2022-09-24T20:47:50.373Z,10.50
2022-09-24T20:50:21.403Z,10.27
2022-09-24T20:52:52.256Z,11.27
2022-09-24T20:55:25.806Z,10.67
2022-09-24T20:57:56.723Z,10.37
2022-09-24T21:00:36.146Z,12.90
2022-09-24T21:03:31.883Z,10.50
2022-09-24T21:06:04.066Z,11.03
2022-09-24T21:08:35.681Z,12.13
2022-09-24T21:11:09.255Z,11.90
2022-09-24T21:13:44.780Z,11.90
2022-09-24T21:16:20.673Z,11.70
2022-09-24T21:18:54.328Z,12.60
2022-09-24T21:21:27.485Z,13.03
2022-09-24T21:24:00.955Z,13.97
2022-09-24T21:26:39.271Z,12.70
2022-09-24T21:29:13.102Z,12.70
2022-09-24T21:31:49.043Z,10.77
2022-09-24T21:34:22.487Z,13.50
2022-09-24T21:36:53.668Z,11.33
2022-09-24T21:39:27.631Z,12.17
2022-09-24T21:42:00.178Z,13.70
2022-09-24T21:44:34.076Z,12.97
2022-09-24T21:47:10.288Z,11.30
2022-09-24T21:49:41.968Z,11.23
2022-09-24T21:52:16.564Z,14.17
2022-09-24T21:54:47.321Z,12.23
2022-09-24T21:57:18.054Z,11.30
2022-09-24T22:00:04.075Z,12.80
2022-09-24T22:02:43.472Z,11.97
2022-09-24T22:05:19.537Z,12.63
2022-09-24T22:07:50.409Z,11.03
2022-09-24T22:10:21.130Z,14.77
2022-09-24T22:12:52.018Z,12.13
2022-09-24T22:15:22.915Z,14.43
2022-09-24T22:17:56.282Z,11.27
2022-09-24T22:20:28.284Z,13.90
2022-09-24T22:22:59.100Z,13.57
2022-09-24T22:25:34.925Z,13.17
2022-09-24T22:28:06.196Z,14.00
2022-09-24T22:30:37.437Z,17.17
2022-09-24T22:33:31.945Z,12.17
2022-09-24T22:36:00.694Z,14.53
2022-09-24T22:38:31.469Z,14.00
2022-09-24T22:41:03.347Z,13.50
2022-09-24T22:43:35.817Z,17.70
2022-09-24T22:46:11.339Z,12.87
2022-09-24T22:48:47.180Z,13.73
2022-09-24T22:51:17.981Z,14.90
2022-09-24T22:53:52.615Z,11.67
2022-09-24T22:56:25.656Z,18.00
2022-09-24T22:58:58.503Z,15.37
2022-09-24T23:01:31.665Z,15.47
2022-09-24T23:04:07.685Z,16.23
2022-09-24T23:06:41.300Z,13.80
2022-09-24T23:09:14.963Z,16.03
2022-09-24T23:11:47.641Z,16.30
2022-09-24T23:14:21.897Z,20.23
2022-09-24T23:16:58.771Z,14.87
2022-09-24T23:19:48.836Z,16.80
2022-09-24T23:22:23.484Z,17.50
2022-09-24T23:24:56.462Z,17.40
2022-09-24T23:27:27.517Z,19.70
2022-09-24T23:29:59.356Z,18.60
2022-09-24T23:32:31.327Z,17.80
2022-09-24T23:35:05.052Z,17.10
2022-09-24T23:37:36.356Z,18.70
2022-09-24T23:40:08.551Z,15.50
2022-09-24T23:42:41.308Z,15.73
2022-09-24T23:45:14.166Z,15.77
2022-09-24T23:47:44.848Z,16.27
2022-09-24T23:50:18.392Z,14.70
2022-09-24T23:52:50.677Z,14.50
2022-09-24T23:55:21.452Z,13.00
2022-09-24T23:57:52.292Z,12.97
